sensor_id;sensor_type;location;lat;lon;timestamp;P1;durP1;ratioP1;P2;durP2;ratioP2
36833;SDS011;48003;52.084;5.224;2023-05-10T00:00:14;48.5;;;32.8;;
36833;SDS011;48003;52.084;5.224;2023-05-10T00:03:27;47.4;;;32.6;;
36833;SDS011;48003;52.084;5.224;2023-05-10T00:05:03;49.4;;;32.3;;
36833;SDS011;48003;52.084;5.224;2023-05-10T00:06:40;45.9;;;31.9;;
36833;SDS011;48003;52.084;5.224;2023-05-10T00:09:52;48.7;;;32.71;;
36833;SDS011;48003;52.084;5.224;2023-05-10T00:11:29;45.4;;;32.8;;
36833;SDS011;48003;52.084;5.224;2023-05-10T00:13:05;46.7;;;33.1;;
36833;SDS011;48003;52.084;5.224;2023-05-10T00:16:17;46.5;;;32.3;;
36833;SDS011;48003;52.084;5.224;2023-05-10T00:17:53;50.2;;;33.8;;
36833;SDS011;48003;52.084;5.224;2023-05-10T00:19:29;53.0;;;35.4;;
36833;SDS011;48003;52.084;5.224;2023-05-10T00:21:05;51.3;;;34.31;;
36833;SDS011;48003;52.084;5.224;2023-05-10T00:24:18;51.4;;;34.4;;
36833;SDS011;48003;52.084;5.224;2023-05-10T00:25:54;52.7;;;35.1;;
36833;SDS011;48003;52.084;5.224;2023-05-10T00:27:30;48.3;;;32.3;;
36833;SDS011;48003;52.084;5.224;2023-05-10T00:30:42;45.6;;;32.5;;
36833;SDS011;48003;52.084;5.224;2023-05-10T00:32:18;44.9;;;31.9;;
36833;SDS011;48003;52.084;5.224;2023-05-10T00:33:55;45.8;;;32.21;;
36833;SDS011;48003;52.084;5.224;2023-05-10T00:37:08;51.3;;;32.6;;
36833;SDS011;48003;52.084;5.224;2023-05-10T00:38:44;54.2;;;34.1;;
36833;SDS011;48003;52.084;5.224;2023-05-10T00:40:20;50.6;;;33.6;;
36833;SDS011;48003;52.084;5.224;2023-05-10T00:43:32;51.0;;;33.71;;
36833;SDS011;48003;52.084;5.224;2023-05-10T00:45:08;49.9;;;32.4;;
36833;SDS011;48003;52.084;5.224;2023-05-10T00:46:44;51.5;;;33.21;;
36833;SDS011;48003;52.084;5.224;2023-05-10T00:48:21;58.2;;;36.21;;
36833;SDS011;48003;52.084;5.224;2023-05-10T00:51:34;55.0;;;35.81;;
36833;SDS011;48003;52.084;5.224;2023-05-10T00:53:10;52.1;;;33.1;;
36833;SDS011;48003;52.084;5.224;2023-05-10T00:54:46;48.1;;;32.0;;
36833;SDS011;48003;52.084;5.224;2023-05-10T00:57:59;58.8;;;34.6;;
36833;SDS011;48003;52.084;5.224;2023-05-10T00:59:35;54.0;;;33.21;;
36833;SDS011;48003;52.084;5.224;2023-05-10T01:01:11;51.5;;;32.21;;
36833;SDS011;48003;52.084;5.224;2023-05-10T01:04:25;51.9;;;32.6;;
36833;SDS011;48003;52.084;5.224;2023-05-10T01:06:01;46.7;;;30.9;;
36833;SDS011;48003;52.084;5.224;2023-05-10T01:07:37;50.6;;;31.8;;
36833;SDS011;48003;52.084;5.224;2023-05-10T01:09:13;54.6;;;33.0;;
36833;SDS011;48003;52.084;5.224;2023-05-10T01:12:25;59.0;;;34.31;;
36833;SDS011;48003;52.084;5.224;2023-05-10T01:14:01;50.1;;;32.71;;
36833;SDS011;48003;52.084;5.224;2023-05-10T01:15:39;53.0;;;32.21;;
36833;SDS011;48003;52.084;5.224;2023-05-10T01:18:53;56.0;;;33.1;;
36833;SDS011;48003;52.084;5.224;2023-05-10T01:20:31;58.5;;;33.71;;
36833;SDS011;48003;52.084;5.224;2023-05-10T01:22:26;49.2;;;30.7;;
36833;SDS011;48003;52.084;5.224;2023-05-10T01:25:55;52.4;;;32.8;;
36833;SDS011;48003;52.084;5.224;2023-05-10T01:28:07;52.1;;;31.6;;
36833;SDS011;48003;52.084;5.224;2023-05-10T01:30:01;55.1;;;33.9;;
36833;SDS011;48003;52.084;5.224;2023-05-10T01:32:05;50.2;;;30.8;;
36833;SDS011;48003;52.084;5.224;2023-05-10T01:33:52;48.8;;;30.3;;
36833;SDS011;48003;52.084;5.224;2023-05-10T01:35:33;47.5;;;30.8;;
36833;SDS011;48003;52.084;5.224;2023-05-10T01:37:20;46.9;;;30.5;;
36833;SDS011;48003;52.084;5.224;2023-05-10T01:39:02;54.3;;;32.71;;
36833;SDS011;48003;52.084;5.224;2023-05-10T01:40:48;55.2;;;32.5;;
36833;SDS011;48003;52.084;5.224;2023-05-10T01:44:24;50.2;;;30.6;;
36833;SDS011;48003;52.084;5.224;2023-05-10T01:46:10;55.3;;;33.4;;
36833;SDS011;48003;52.084;5.224;2023-05-10T01:47:54;54.9;;;32.5;;
36833;SDS011;48003;52.084;5.224;2023-05-10T01:49:39;52.6;;;31.2;;
36833;SDS011;48003;52.084;5.224;2023-05-10T01:51:19;57.7;;;34.0;;
36833;SDS011;48003;52.084;5.224;2023-05-10T01:54:38;59.0;;;35.0;;
36833;SDS011;48003;52.084;5.224;2023-05-10T01:56:19;62.3;;;34.81;;
36833;SDS011;48003;52.084;5.224;2023-05-10T01:58:01;59.1;;;35.1;;
36833;SDS011;48003;52.084;5.224;2023-05-10T01:59:41;57.1;;;33.8;;
36833;SDS011;48003;52.084;5.224;2023-05-10T02:02:58;61.8;;;36.4;;
36833;SDS011;48003;52.084;5.224;2023-05-10T02:04:39;60.2;;;35.21;;
36833;SDS011;48003;52.084;5.224;2023-05-10T02:06:18;58.0;;;33.6;;
36833;SDS011;48003;52.084;5.224;2023-05-10T02:07:57;56.2;;;36.1;;
36833;SDS011;48003;52.084;5.224;2023-05-10T02:11:14;55.9;;;34.1;;
36833;SDS011;48003;52.084;5.224;2023-05-10T02:12:53;68.1;;;37.4;;
36833;SDS011;48003;52.084;5.224;2023-05-10T02:14:30;62.5;;;36.21;;
36833;SDS011;48003;52.084;5.224;2023-05-10T02:16:10;67.3;;;37.21;;
36833;SDS011;48003;52.084;5.224;2023-05-10T02:19:29;71.61;;;38.31;;
36833;SDS011;48003;52.084;5.224;2023-05-10T02:21:08;74.5;;;39.4;;
36833;SDS011;48003;52.084;5.224;2023-05-10T02:22:45;75.11;;;39.31;;
36833;SDS011;48003;52.084;5.224;2023-05-10T02:26:02;69.3;;;37.71;;
36833;SDS011;48003;52.084;5.224;2023-05-10T02:27:39;76.0;;;39.81;;
36833;SDS011;48003;52.084;5.224;2023-05-10T02:29:18;83.5;;;41.6;;
36833;SDS011;48003;52.084;5.224;2023-05-10T02:30:55;72.11;;;38.81;;
36833;SDS011;48003;52.084;5.224;2023-05-10T02:34:10;74.7;;;40.21;;
36833;SDS011;48003;52.084;5.224;2023-05-10T02:35:49;74.8;;;40.21;;
36833;SDS011;48003;52.084;5.224;2023-05-10T02:37:26;80.0;;;39.9;;
36833;SDS011;48003;52.084;5.224;2023-05-10T02:40:42;76.2;;;37.71;;
36833;SDS011;48003;52.084;5.224;2023-05-10T02:42:22;79.0;;;38.71;;
36833;SDS011;48003;52.084;5.224;2023-05-10T02:44:04;82.3;;;38.81;;
36833;SDS011;48003;52.084;5.224;2023-05-10T02:45:43;80.5;;;36.81;;
36833;SDS011;48003;52.084;5.224;2023-05-10T02:48:59;90.0;;;39.71;;
36833;SDS011;48003;52.084;5.224;2023-05-10T02:50:37;96.0;;;40.21;;
36833;SDS011;48003;52.084;5.224;2023-05-10T02:52:20;95.8;;;41.5;;
36833;SDS011;48003;52.084;5.224;2023-05-10T02:54:00;93.1;;;40.6;;
36833;SDS011;48003;52.084;5.224;2023-05-10T02:55:57;86.9;;;38.9;;
36833;SDS011;48003;52.084;5.224;2023-05-10T02:59:17;89.4;;;40.4;;
36833;SDS011;48003;52.084;5.224;2023-05-10T03:00:53;82.5;;;40.21;;
36833;SDS011;48003;52.084;5.224;2023-05-10T03:02:30;89.0;;;41.4;;
36833;SDS011;48003;52.084;5.224;2023-05-10T03:05:43;85.4;;;40.71;;
36833;SDS011;48003;52.084;5.224;2023-05-10T03:07:19;78.91;;;39.9;;
36833;SDS011;48003;52.084;5.224;2023-05-10T03:08:55;79.8;;;38.4;;
36833;SDS011;48003;52.084;5.224;2023-05-10T03:10:31;82.6;;;41.2;;
36833;SDS011;48003;52.084;5.224;2023-05-10T03:14:08;81.0;;;40.9;;
36833;SDS011;48003;52.084;5.224;2023-05-10T03:15:56;76.3;;;40.6;;
36833;SDS011;48003;52.084;5.224;2023-05-10T03:17:40;76.61;;;39.5;;
36833;SDS011;48003;52.084;5.224;2023-05-10T03:19:24;74.3;;;39.0;;
36833;SDS011;48003;52.084;5.224;2023-05-10T03:21:07;80.91;;;40.71;;
36833;SDS011;48003;52.084;5.224;2023-05-10T03:24:27;68.3;;;37.71;;
36833;SDS011;48003;52.084;5.224;2023-05-10T03:26:04;76.61;;;39.0;;
36833;SDS011;48003;52.084;5.224;2023-05-10T03:27:43;75.2;;;39.0;;
36833;SDS011;48003;52.084;5.224;2023-05-10T03:30:59;75.8;;;38.81;;
36833;SDS011;48003;52.084;5.224;2023-05-10T03:32:35;81.3;;;39.6;;
36833;SDS011;48003;52.084;5.224;2023-05-10T03:34:11;79.0;;;38.71;;
36833;SDS011;48003;52.084;5.224;2023-05-10T03:35:47;85.5;;;40.0;;
36833;SDS011;48003;52.084;5.224;2023-05-10T03:38:59;73.0;;;36.81;;
36833;SDS011;48003;52.084;5.224;2023-05-10T03:40:35;65.91;;;36.1;;
36833;SDS011;48003;52.084;5.224;2023-05-10T03:42:11;71.11;;;36.5;;
36833;SDS011;48003;52.084;5.224;2023-05-10T03:45:24;80.7;;;38.9;;
36833;SDS011;48003;52.084;5.224;2023-05-10T03:47:00;78.41;;;38.6;;
36833;SDS011;48003;52.084;5.224;2023-05-10T03:48:36;78.41;;;38.5;;
36833;SDS011;48003;52.084;5.224;2023-05-10T03:51:49;81.0;;;37.21;;
36833;SDS011;48003;52.084;5.224;2023-05-10T03:53:25;82.6;;;38.21;;
36833;SDS011;48003;52.084;5.224;2023-05-10T03:55:01;78.0;;;38.31;;
36833;SDS011;48003;52.084;5.224;2023-05-10T03:56:38;76.61;;;39.1;;
36833;SDS011;48003;52.084;5.224;2023-05-10T03:59:51;87.2;;;38.81;;
36833;SDS011;48003;52.084;5.224;2023-05-10T04:01:27;79.41;;;37.6;;
36833;SDS011;48003;52.084;5.224;2023-05-10T04:03:03;76.91;;;37.4;;
36833;SDS011;48003;52.084;5.224;2023-05-10T04:06:17;81.61;;;39.31;;
36833;SDS011;48003;52.084;5.224;2023-05-10T04:13:13;96.3;;;40.9;;
36833;SDS011;48003;52.084;5.224;2023-05-10T04:14:49;87.9;;;41.1;;
36833;SDS011;48003;52.084;5.224;2023-05-10T04:16:25;87.0;;;40.0;;
36833;SDS011;48003;52.084;5.224;2023-05-10T04:18:02;89.6;;;40.81;;
36833;SDS011;48003;52.084;5.224;2023-05-10T04:19:38;104.6;;;43.0;;
36833;SDS011;48003;52.084;5.224;2023-05-10T04:22:50;92.1;;;42.2;;
36833;SDS011;48003;52.084;5.224;2023-05-10T04:24:26;86.7;;;41.3;;
36833;SDS011;48003;52.084;5.224;2023-05-10T04:26:02;88.6;;;40.4;;
36833;SDS011;48003;52.084;5.224;2023-05-10T04:29:14;85.2;;;39.71;;
36833;SDS011;48003;52.084;5.224;2023-05-10T04:30:50;89.2;;;41.4;;
36833;SDS011;48003;52.084;5.224;2023-05-10T04:32:27;89.5;;;41.3;;
36833;SDS011;48003;52.084;5.224;2023-05-10T04:35:39;90.2;;;41.7;;
36833;SDS011;48003;52.084;5.224;2023-05-10T04:37:15;98.0;;;43.4;;
36833;SDS011;48003;52.084;5.224;2023-05-10T04:38:51;81.41;;;39.0;;
36833;SDS011;48003;52.084;5.224;2023-05-10T04:42:03;105.4;;;45.2;;
36833;SDS011;48003;52.084;5.224;2023-05-10T04:43:40;99.1;;;45.7;;
36833;SDS011;48003;52.084;5.224;2023-05-10T04:45:16;105.1;;;45.3;;
36833;SDS011;48003;52.084;5.224;2023-05-10T04:46:52;106.3;;;45.2;;
36833;SDS011;48003;52.084;5.224;2023-05-10T04:50:05;108.4;;;45.7;;
36833;SDS011;48003;52.084;5.224;2023-05-10T04:51:42;102.7;;;46.5;;
36833;SDS011;48003;52.084;5.224;2023-05-10T04:53:18;97.8;;;43.9;;
36833;SDS011;48003;52.084;5.224;2023-05-10T04:56:31;90.4;;;42.1;;
36833;SDS011;48003;52.084;5.224;2023-05-10T04:58:07;85.3;;;41.9;;
36833;SDS011;48003;52.084;5.224;2023-05-10T04:59:43;86.2;;;40.9;;
36833;SDS011;48003;52.084;5.224;2023-05-10T05:02:55;84.4;;;40.81;;
36833;SDS011;48003;52.084;5.224;2023-05-10T05:04:31;82.9;;;40.4;;
36833;SDS011;48003;52.084;5.224;2023-05-10T05:06:07;76.2;;;40.1;;
36833;SDS011;48003;52.084;5.224;2023-05-10T05:07:43;69.2;;;37.6;;
36833;SDS011;48003;52.084;5.224;2023-05-10T05:10:56;70.41;;;38.71;;
36833;SDS011;48003;52.084;5.224;2023-05-10T05:12:32;71.11;;;38.5;;
36833;SDS011;48003;52.084;5.224;2023-05-10T05:14:08;52.7;;;32.4;;
36833;SDS011;48003;52.084;5.224;2023-05-10T05:17:21;51.0;;;32.3;;
36833;SDS011;48003;52.084;5.224;2023-05-10T05:18:57;54.2;;;33.9;;
36833;SDS011;48003;52.084;5.224;2023-05-10T05:20:37;54.9;;;33.9;;
36833;SDS011;48003;52.084;5.224;2023-05-10T05:23:54;54.9;;;33.9;;
36833;SDS011;48003;52.084;5.224;2023-05-10T05:25:31;58.7;;;36.9;;
36833;SDS011;48003;52.084;5.224;2023-05-10T05:27:07;64.8;;;39.9;;
36833;SDS011;48003;52.084;5.224;2023-05-10T05:28:42;70.7;;;41.8;;
36833;SDS011;48003;52.084;5.224;2023-05-10T05:31:54;68.0;;;40.71;;
36833;SDS011;48003;52.084;5.224;2023-05-10T05:33:32;75.2;;;42.0;;
36833;SDS011;48003;52.084;5.224;2023-05-10T05:35:09;79.0;;;42.1;;
36833;SDS011;48003;52.084;5.224;2023-05-10T05:38:22;73.61;;;38.6;;
36833;SDS011;48003;52.084;5.224;2023-05-10T05:39:59;72.7;;;39.5;;
36833;SDS011;48003;52.084;5.224;2023-05-10T05:41:37;75.8;;;39.71;;
36833;SDS011;48003;52.084;5.224;2023-05-10T05:43:15;74.91;;;38.4;;
36833;SDS011;48003;52.084;5.224;2023-05-10T05:46:30;58.1;;;31.8;;
36833;SDS011;48003;52.084;5.224;2023-05-10T05:48:08;61.3;;;34.9;;
36833;SDS011;48003;52.084;5.224;2023-05-10T05:49:46;58.8;;;32.1;;
36833;SDS011;48003;52.084;5.224;2023-05-10T05:53:01;55.6;;;31.5;;
36833;SDS011;48003;52.084;5.224;2023-05-10T05:54:37;59.1;;;32.8;;
36833;SDS011;48003;52.084;5.224;2023-05-10T05:56:14;68.5;;;37.1;;
36833;SDS011;48003;52.084;5.224;2023-05-10T05:59:30;74.5;;;38.31;;
36833;SDS011;48003;52.084;5.224;2023-05-10T06:01:07;74.11;;;39.6;;
36833;SDS011;48003;52.084;5.224;2023-05-10T06:02:45;74.5;;;39.6;;
36833;SDS011;48003;52.084;5.224;2023-05-10T06:04:23;75.7;;;39.81;;
36833;SDS011;48003;52.084;5.224;2023-05-10T06:07:39;75.7;;;39.81;;
36833;SDS011;48003;52.084;5.224;2023-05-10T06:09:16;68.0;;;36.6;;
36833;SDS011;48003;52.084;5.224;2023-05-10T06:10:53;70.0;;;36.6;;
36833;SDS011;48003;52.084;5.224;2023-05-10T06:14:08;64.2;;;35.71;;
36833;SDS011;48003;52.084;5.224;2023-05-10T06:15:45;65.1;;;33.71;;
36833;SDS011;48003;52.084;5.224;2023-05-10T06:17:23;64.91;;;33.71;;
36833;SDS011;48003;52.084;5.224;2023-05-10T06:19:01;54.6;;;31.6;;
36833;SDS011;48003;52.084;5.224;2023-05-10T06:22:18;53.3;;;30.9;;
36833;SDS011;48003;52.084;5.224;2023-05-10T06:23:55;54.0;;;28.8;;
36833;SDS011;48003;52.084;5.224;2023-05-10T06:25:33;50.0;;;28.6;;
36833;SDS011;48003;52.084;5.224;2023-05-10T06:27:11;47.9;;;27.8;;
36833;SDS011;48003;52.084;5.224;2023-05-10T06:30:26;44.1;;;24.8;;
36833;SDS011;48003;52.084;5.224;2023-05-10T06:32:04;38.1;;;22.6;;
36833;SDS011;48003;52.084;5.224;2023-05-10T06:33:41;34.0;;;21.3;;
36833;SDS011;48003;52.084;5.224;2023-05-10T06:36:57;33.8;;;20.5;;
36833;SDS011;48003;52.084;5.224;2023-05-10T06:38:35;30.9;;;18.5;;
36833;SDS011;48003;52.084;5.224;2023-05-10T06:40:13;29.9;;;17.7;;
36833;SDS011;48003;52.084;5.224;2023-05-10T06:41:51;31.1;;;18.0;;
36833;SDS011;48003;52.084;5.224;2023-05-10T06:45:07;29.3;;;17.11;;
36833;SDS011;48003;52.084;5.224;2023-05-10T06:46:44;26.8;;;16.5;;
36833;SDS011;48003;52.084;5.224;2023-05-10T06:48:21;26.0;;;16.0;;
36833;SDS011;48003;52.084;5.224;2023-05-10T06:51:35;25.3;;;15.0;;
36833;SDS011;48003;52.084;5.224;2023-05-10T06:53:11;23.4;;;15.0;;
36833;SDS011;48003;52.084;5.224;2023-05-10T06:54:49;22.6;;;14.3;;
36833;SDS011;48003;52.084;5.224;2023-05-10T06:58:03;21.8;;;14.0;;
36833;SDS011;48003;52.084;5.224;2023-05-10T06:59:40;23.9;;;13.8;;
36833;SDS011;48003;52.084;5.224;2023-05-10T07:01:18;20.5;;;13.7;;
36833;SDS011;48003;52.084;5.224;2023-05-10T07:02:56;20.7;;;13.9;;
36833;SDS011;48003;52.084;5.224;2023-05-10T07:06:08;20.3;;;12.7;;
36833;SDS011;48003;52.084;5.224;2023-05-10T07:07:45;20.2;;;12.7;;
36833;SDS011;48003;52.084;5.224;2023-05-10T07:09:23;19.91;;;13.2;;
36833;SDS011;48003;52.084;5.224;2023-05-10T07:12:40;21.3;;;12.4;;
36833;SDS011;48003;52.084;5.224;2023-05-10T07:14:18;17.8;;;12.4;;
36833;SDS011;48003;52.084;5.224;2023-05-10T07:15:56;18.2;;;12.3;;
36833;SDS011;48003;52.084;5.224;2023-05-10T07:17:33;20.9;;;12.1;;
36833;SDS011;48003;52.084;5.224;2023-05-10T07:20:48;14.8;;;10.5;;
36833;SDS011;48003;52.084;5.224;2023-05-10T07:22:26;16.11;;;10.6;;
36833;SDS011;48003;52.084;5.224;2023-05-10T07:24:04;14.9;;;10.21;;
36833;SDS011;48003;52.084;5.224;2023-05-10T07:27:19;15.4;;;10.3;;
36833;SDS011;48003;52.084;5.224;2023-05-10T07:28:56;15.2;;;10.0;;
36833;SDS011;48003;52.084;5.224;2023-05-10T07:30:33;16.11;;;10.8;;
36833;SDS011;48003;52.084;5.224;2023-05-10T07:32:11;15.7;;;10.8;;
36833;SDS011;48003;52.084;5.224;2023-05-10T07:35:25;14.6;;;10.6;;
36833;SDS011;48003;52.084;5.224;2023-05-10T07:37:02;14.9;;;10.4;;
36833;SDS011;48003;52.084;5.224;2023-05-10T07:38:40;15.1;;;10.5;;
36833;SDS011;48003;52.084;5.224;2023-05-10T07:41:56;16.3;;;10.21;;
36833;SDS011;48003;52.084;5.224;2023-05-10T07:43:33;15.6;;;10.5;;
36833;SDS011;48003;52.084;5.224;2023-05-10T07:45:11;14.3;;;10.1;;
36833;SDS011;48003;52.084;5.224;2023-05-10T07:46:48;14.4;;;10.3;;
36833;SDS011;48003;52.084;5.224;2023-05-10T07:50:03;16.9;;;10.8;;
36833;SDS011;48003;52.084;5.224;2023-05-10T07:51:40;17.0;;;11.0;;
36833;SDS011;48003;52.084;5.224;2023-05-10T07:53:18;15.5;;;10.8;;
36833;SDS011;48003;52.084;5.224;2023-05-10T07:56:32;16.5;;;11.3;;
36833;SDS011;48003;52.084;5.224;2023-05-10T07:58:09;16.61;;;11.3;;
36833;SDS011;48003;52.084;5.224;2023-05-10T07:59:46;17.2;;;11.3;;
36833;SDS011;48003;52.084;5.224;2023-05-10T08:01:24;17.41;;;11.8;;
36833;SDS011;48003;52.084;5.224;2023-05-10T08:04:39;16.7;;;11.6;;
36833;SDS011;48003;52.084;5.224;2023-05-10T08:06:17;17.7;;;12.0;;
36833;SDS011;48003;52.084;5.224;2023-05-10T08:07:55;17.0;;;11.2;;
36833;SDS011;48003;52.084;5.224;2023-05-10T08:11:10;18.61;;;11.4;;
36833;SDS011;48003;52.084;5.224;2023-05-10T08:12:48;18.11;;;11.7;;
36833;SDS011;48003;52.084;5.224;2023-05-10T08:14:25;17.7;;;11.6;;
36833;SDS011;48003;52.084;5.224;2023-05-10T08:16:04;17.41;;;11.4;;
36833;SDS011;48003;52.084;5.224;2023-05-10T08:19:20;17.8;;;12.0;;
36833;SDS011;48003;52.084;5.224;2023-05-10T08:20:58;18.3;;;12.0;;
36833;SDS011;48003;52.084;5.224;2023-05-10T08:22:35;15.6;;;11.3;;
36833;SDS011;48003;52.084;5.224;2023-05-10T08:25:50;20.5;;;11.7;;
36833;SDS011;48003;52.084;5.224;2023-05-10T08:27:26;15.9;;;10.9;;
36833;SDS011;48003;52.084;5.224;2023-05-10T08:29:04;17.5;;;10.7;;
36833;SDS011;48003;52.084;5.224;2023-05-10T08:30:40;17.3;;;11.0;;
36833;SDS011;48003;52.084;5.224;2023-05-10T08:33:55;15.4;;;10.4;;
36833;SDS011;48003;52.084;5.224;2023-05-10T08:35:33;18.11;;;10.6;;
36833;SDS011;48003;52.084;5.224;2023-05-10T08:37:11;16.7;;;10.7;;
36833;SDS011;48003;52.084;5.224;2023-05-10T08:40:29;15.6;;;10.3;;
36833;SDS011;48003;52.084;5.224;2023-05-10T08:42:06;14.8;;;10.5;;
36833;SDS011;48003;52.084;5.224;2023-05-10T08:43:46;18.61;;;12.4;;
36833;SDS011;48003;52.084;5.224;2023-05-10T08:45:25;17.11;;;11.3;;
36833;SDS011;48003;52.084;5.224;2023-05-10T08:48:48;16.3;;;10.21;;
36833;SDS011;48003;52.084;5.224;2023-05-10T08:50:27;14.6;;;10.3;;
36833;SDS011;48003;52.084;5.224;2023-05-10T08:52:06;14.4;;;10.1;;
36833;SDS011;48003;52.084;5.224;2023-05-10T08:53:44;15.0;;;10.6;;
36833;SDS011;48003;52.084;5.224;2023-05-10T08:57:00;14.8;;;11.1;;
36833;SDS011;48003;52.084;5.224;2023-05-10T08:58:38;15.5;;;10.0;;
36833;SDS011;48003;52.084;5.224;2023-05-10T09:00:15;14.3;;;10.0;;
36833;SDS011;48003;52.084;5.224;2023-05-10T09:03:34;14.1;;;10.1;;
36833;SDS011;48003;52.084;5.224;2023-05-10T09:05:12;14.2;;;10.1;;
36833;SDS011;48003;52.084;5.224;2023-05-10T09:06:48;13.6;;;9.81;;
36833;SDS011;48003;52.084;5.224;2023-05-10T09:08:26;14.6;;;9.9;;
36833;SDS011;48003;52.084;5.224;2023-05-10T09:11:44;15.1;;;9.9;;
36833;SDS011;48003;52.084;5.224;2023-05-10T09:13:21;15.8;;;10.3;;
36833;SDS011;48003;52.084;5.224;2023-05-10T09:15:00;14.6;;;9.9;;
36833;SDS011;48003;52.084;5.224;2023-05-10T09:16:39;13.3;;;9.4;;
36833;SDS011;48003;52.084;5.224;2023-05-10T09:19:57;14.4;;;9.4;;
36833;SDS011;48003;52.084;5.224;2023-05-10T09:21:36;13.0;;;9.71;;
36833;SDS011;48003;52.084;5.224;2023-05-10T09:23:13;14.7;;;10.1;;
36833;SDS011;48003;52.084;5.224;2023-05-10T09:26:45;14.3;;;10.1;;
36833;SDS011;48003;52.084;5.224;2023-05-10T09:28:24;14.5;;;10.3;;
36833;SDS011;48003;52.084;5.224;2023-05-10T09:30:02;14.2;;;10.5;;
36833;SDS011;48003;52.084;5.224;2023-05-10T09:31:44;18.3;;;11.8;;
36833;SDS011;48003;52.084;5.224;2023-05-10T09:33:23;17.8;;;11.0;;
36833;SDS011;48003;52.084;5.224;2023-05-10T09:36:52;15.7;;;10.8;;
36833;SDS011;48003;52.084;5.224;2023-05-10T09:38:35;13.7;;;10.1;;
36833;SDS011;48003;52.084;5.224;2023-05-10T09:40:23;14.5;;;10.5;;
36833;SDS011;48003;52.084;5.224;2023-05-10T09:42:02;16.9;;;10.6;;
36833;SDS011;48003;52.084;5.224;2023-05-10T09:45:19;14.4;;;10.21;;
36833;SDS011;48003;52.084;5.224;2023-05-10T09:46:57;16.8;;;10.8;;
36833;SDS011;48003;52.084;5.224;2023-05-10T09:48:39;15.2;;;10.1;;
36833;SDS011;48003;52.084;5.224;2023-05-10T09:50:19;13.9;;;10.1;;
36833;SDS011;48003;52.084;5.224;2023-05-10T09:53:38;15.5;;;9.81;;
36833;SDS011;48003;52.084;5.224;2023-05-10T09:55:16;12.6;;;8.81;;
36833;SDS011;48003;52.084;5.224;2023-05-10T09:56:55;13.2;;;9.21;;
36833;SDS011;48003;52.084;5.224;2023-05-10T09:58:34;12.4;;;8.9;;
36833;SDS011;48003;52.084;5.224;2023-05-10T10:01:56;13.5;;;9.4;;
36833;SDS011;48003;52.084;5.224;2023-05-10T10:03:40;11.5;;;8.4;;
36833;SDS011;48003;52.084;5.224;2023-05-10T10:05:19;12.5;;;7.9;;
36833;SDS011;48003;52.084;5.224;2023-05-10T10:06:58;9.9;;;6.6;;
36833;SDS011;48003;52.084;5.224;2023-05-10T10:10:15;9.81;;;6.3;;
36833;SDS011;48003;52.084;5.224;2023-05-10T10:11:53;10.3;;;6.7;;
36833;SDS011;48003;52.084;5.224;2023-05-10T10:13:31;10.1;;;6.7;;
36833;SDS011;48003;52.084;5.224;2023-05-10T10:16:47;9.4;;;6.4;;
36833;SDS011;48003;52.084;5.224;2023-05-10T10:18:26;9.0;;;5.7;;
36833;SDS011;48003;52.084;5.224;2023-05-10T10:20:05;10.1;;;6.1;;
36833;SDS011;48003;52.084;5.224;2023-05-10T10:21:43;8.1;;;5.7;;
36833;SDS011;48003;52.084;5.224;2023-05-10T10:24:58;8.9;;;5.7;;
36833;SDS011;48003;52.084;5.224;2023-05-10T10:26:36;8.0;;;5.7;;
36833;SDS011;48003;52.084;5.224;2023-05-10T10:28:17;7.1;;;5.11;;
36833;SDS011;48003;52.084;5.224;2023-05-10T10:30:06;7.1;;;5.11;;
36833;SDS011;48003;52.084;5.224;2023-05-10T10:33:51;8.81;;;5.0;;
36833;SDS011;48003;52.084;5.224;2023-05-10T10:35:36;7.2;;;5.4;;
36833;SDS011;48003;52.084;5.224;2023-05-10T10:37:14;8.1;;;5.11;;
36833;SDS011;48003;52.084;5.224;2023-05-10T10:38:55;7.8;;;5.5;;
36833;SDS011;48003;52.084;5.224;2023-05-10T10:40:33;7.7;;;5.4;;
36833;SDS011;48003;52.084;5.224;2023-05-10T10:43:48;8.6;;;5.9;;
36833;SDS011;48003;52.084;5.224;2023-05-10T10:45:26;7.4;;;4.8;;
36833;SDS011;48003;52.084;5.224;2023-05-10T10:47:05;7.7;;;5.3;;
36833;SDS011;48003;52.084;5.224;2023-05-10T10:48:47;7.4;;;5.5;;
36833;SDS011;48003;52.084;5.224;2023-05-10T10:52:21;8.5;;;5.2;;
36833;SDS011;48003;52.084;5.224;2023-05-10T10:54:08;7.1;;;5.0;;
36833;SDS011;48003;52.084;5.224;2023-05-10T10:55:46;8.5;;;5.6;;
36833;SDS011;48003;52.084;5.224;2023-05-10T10:57:26;8.71;;;5.8;;
36833;SDS011;48003;52.084;5.224;2023-05-10T11:00:39;10.1;;;5.9;;
36833;SDS011;48003;52.084;5.224;2023-05-10T11:02:48;8.71;;;6.4;;
36833;SDS011;48003;52.084;5.224;2023-05-10T11:04:26;10.1;;;7.1;;
36833;SDS011;48003;52.084;5.224;2023-05-10T11:06:02;8.4;;;6.0;;
36833;SDS011;48003;52.084;5.224;2023-05-10T11:07:45;7.1;;;5.11;;
36833;SDS011;48003;52.084;5.224;2023-05-10T11:11:03;7.9;;;5.9;;
36833;SDS011;48003;52.084;5.224;2023-05-10T11:12:50;7.7;;;5.2;;
36833;SDS011;48003;52.084;5.224;2023-05-10T11:14:27;7.9;;;5.4;;
36833;SDS011;48003;52.084;5.224;2023-05-10T11:16:11;7.6;;;5.2;;
36833;SDS011;48003;52.084;5.224;2023-05-10T11:19:27;7.5;;;5.3;;
36833;SDS011;48003;52.084;5.224;2023-05-10T11:21:03;7.2;;;4.91;;
36833;SDS011;48003;52.084;5.224;2023-05-10T11:22:55;8.71;;;5.4;;
36833;SDS011;48003;52.084;5.224;2023-05-10T11:24:31;7.0;;;5.0;;
36833;SDS011;48003;52.084;5.224;2023-05-10T11:27:44;8.2;;;5.6;;
36833;SDS011;48003;52.084;5.224;2023-05-10T11:29:23;7.4;;;5.2;;
36833;SDS011;48003;52.084;5.224;2023-05-10T11:30:59;7.8;;;5.4;;
36833;SDS011;48003;52.084;5.224;2023-05-10T11:32:36;9.31;;;5.11;;
36833;SDS011;48003;52.084;5.224;2023-05-10T11:36:00;7.6;;;5.4;;
36833;SDS011;48003;52.084;5.224;2023-05-10T11:37:36;8.5;;;5.0;;
36833;SDS011;48003;52.084;5.224;2023-05-10T11:39:12;8.5;;;5.4;;
36833;SDS011;48003;52.084;5.224;2023-05-10T11:42:27;6.6;;;4.91;;
36833;SDS011;48003;52.084;5.224;2023-05-10T11:44:04;7.0;;;4.3;;
36833;SDS011;48003;52.084;5.224;2023-05-10T11:45:41;6.7;;;4.0;;
36833;SDS011;48003;52.084;5.224;2023-05-10T11:47:18;8.6;;;4.61;;
36833;SDS011;48003;52.084;5.224;2023-05-10T11:50:34;7.4;;;4.1;;
36833;SDS011;48003;52.084;5.224;2023-05-10T11:52:10;5.8;;;3.6;;
36833;SDS011;48003;52.084;5.224;2023-05-10T11:57:01;6.0;;;3.8;;
36833;SDS011;48003;52.084;5.224;2023-05-10T11:58:37;6.0;;;3.8;;
36833;SDS011;48003;52.084;5.224;2023-05-10T12:00:15;5.4;;;3.6;;
36833;SDS011;48003;52.084;5.224;2023-05-10T12:03:27;6.5;;;3.9;;
36833;SDS011;48003;52.084;5.224;2023-05-10T12:06:43;6.0;;;3.6;;
36833;SDS011;48003;52.084;5.224;2023-05-10T12:08:20;5.11;;;3.4;;
36833;SDS011;48003;52.084;5.224;2023-05-10T12:11:43;4.7;;;3.2;;
36833;SDS011;48003;52.084;5.224;2023-05-10T12:13:19;11.0;;;7.5;;
36833;SDS011;48003;52.084;5.224;2023-05-10T12:14:56;6.1;;;3.7;;
36833;SDS011;48003;52.084;5.224;2023-05-10T12:16:33;5.2;;;3.9;;
36833;SDS011;48003;52.084;5.224;2023-05-10T12:19:46;5.9;;;3.9;;
36833;SDS011;48003;52.084;5.224;2023-05-10T12:21:22;5.11;;;4.0;;
36833;SDS011;48003;52.084;5.224;2023-05-10T12:22:58;6.0;;;3.8;;
36833;SDS011;48003;52.084;5.224;2023-05-10T12:26:12;5.0;;;3.5;;
36833;SDS011;48003;52.084;5.224;2023-05-10T12:27:50;6.5;;;3.9;;
36833;SDS011;48003;52.084;5.224;2023-05-10T12:29:29;5.7;;;4.1;;
36833;SDS011;48003;52.084;5.224;2023-05-10T12:32:43;7.7;;;5.5;;
36833;SDS011;48003;52.084;5.224;2023-05-10T12:34:23;7.9;;;5.0;;
36833;SDS011;48003;52.084;5.224;2023-05-10T12:36:00;6.5;;;5.6;;
36833;SDS011;48003;52.084;5.224;2023-05-10T12:37:37;8.1;;;5.7;;
36833;SDS011;48003;52.084;5.224;2023-05-10T12:40:50;6.8;;;5.8;;
36833;SDS011;48003;52.084;5.224;2023-05-10T12:42:26;9.1;;;5.7;;
36833;SDS011;48003;52.084;5.224;2023-05-10T12:44:02;5.9;;;5.3;;